KLDM/LDM METAR and TAF weather

Enter ICAO airport designator
Station Type Date Time Source
KLDM METAR 2020/01/26 03:56 UTC NOAA

KLDM 260356Z AUTO 32003KT 10SM OVC007 02/02 A2978 RMK AO2 T00150015


Station Type Date Time Source
KLDM Decoded METAR 2020/01/26 03:56 UTC NOAA

Ludington, Mason County Airport, MI, United States (KLDM) 43-58N 86-24W
Jan 25, 2020 - 10:56 PM EST / 2020.01.26 0356 UTC
Wind: from the NW (320 degrees) at 3 MPH (3 KT):0
Visibility: 10 mile(s):0
Sky conditions: overcast
Temperature: 34.7 F (1.5 C)
Dew Point: 34.7 F (1.5 C)
Relative Humidity: 100%
Pressure (altimeter): 29.78 in. Hg (1008 hPa)
ob: KLDM 260356Z AUTO 32003KT 10SM OVC007 02/02 A2978 RMK AO2 T00150015
cycle: 4

Station Type Date Time Source
KLDM TAF UTC NOAA

Error!

Example: see airport list